createdAt,value
2018-07-23T00:00:17.463Z,17.77
2018-07-23T00:02:44.743Z,17.76
2018-07-23T00:05:11.986Z,17.73
2018-07-23T00:07:39.210Z,17.71
2018-07-23T00:10:06.716Z,17.68
2018-07-23T00:12:33.941Z,17.63
2018-07-23T00:15:01.185Z,17.61
2018-07-23T00:20:18.627Z,17.62
2018-07-23T00:22:45.910Z,17.62
2018-07-23T00:25:13.180Z,17.59
2018-07-23T00:27:40.472Z,17.61
2018-07-23T00:30:07.769Z,17.58
2018-07-23T00:32:35.216Z,17.55
2018-07-23T00:35:02.454Z,17.53
2018-07-23T00:37:29.725Z,17.52
2018-07-23T00:39:56.962Z,17.51
2018-07-23T00:42:24.216Z,17.50
2018-07-23T00:44:51.435Z,17.51
2018-07-23T00:47:18.705Z,17.46
2018-07-23T00:49:45.954Z,17.42
2018-07-23T00:52:13.239Z,17.43
2018-07-23T00:54:40.452Z,17.44
2018-07-23T00:57:07.706Z,17.46
2018-07-23T00:59:34.967Z,17.49
2018-07-23T01:02:02.918Z,17.52
2018-07-23T01:04:30.425Z,17.56
2018-07-23T01:06:58.679Z,17.59
2018-07-23T01:09:25.918Z,17.62
2018-07-23T01:11:53.198Z,17.64
2018-07-23T01:14:20.446Z,17.68
2018-07-23T01:16:47.906Z,17.71
2018-07-23T01:19:16.051Z,17.74
2018-07-23T01:21:43.339Z,17.76
2018-07-23T01:24:11.531Z,17.78
2018-07-23T01:26:39.252Z,17.77
2018-07-23T01:29:06.940Z,17.77
2018-07-23T01:31:34.291Z,17.77
2018-07-23T01:34:01.601Z,17.76
2018-07-23T01:36:28.929Z,17.75
2018-07-23T01:38:56.861Z,17.76
2018-07-23T01:41:24.213Z,17.78
2018-07-23T01:43:51.563Z,17.80
2018-07-23T01:46:19.552Z,17.79
2018-07-23T01:48:46.921Z,17.81
2018-07-23T01:51:14.292Z,17.80
2018-07-23T01:53:42.074Z,17.78
2018-07-23T01:56:09.685Z,17.79
2018-07-23T01:58:36.975Z,17.78
2018-07-23T02:01:09.798Z,17.78
2018-07-23T02:03:37.876Z,17.79
2018-07-23T02:06:05.245Z,17.78
2018-07-23T02:08:32.618Z,17.76
2018-07-23T02:11:00.026Z,17.76
2018-07-23T02:13:28.406Z,17.73
2018-07-23T02:15:55.699Z,17.75
2018-07-23T02:18:22.987Z,17.76
2018-07-23T02:20:50.215Z,17.77
2018-07-23T02:23:17.455Z,17.78
2018-07-23T02:25:44.694Z,17.76
2018-07-23T02:28:12.009Z,17.76
2018-07-23T02:30:39.265Z,17.76
2018-07-23T02:33:06.544Z,17.75
2018-07-23T02:35:34.012Z,17.71
2018-07-23T02:38:02.501Z,17.66
2018-07-23T02:40:29.984Z,17.63
2018-07-23T02:42:57.230Z,17.57
2018-07-23T02:45:24.501Z,17.52
2018-07-23T02:47:51.780Z,17.50
2018-07-23T02:50:19.021Z,17.43
2018-07-23T02:52:46.285Z,17.36
2018-07-23T02:55:13.726Z,17.33
2018-07-23T02:57:41.050Z,17.28
2018-07-23T03:00:08.332Z,17.30
2018-07-23T03:02:35.603Z,17.28
2018-07-23T03:05:02.961Z,17.26
2018-07-23T03:07:30.248Z,17.24
2018-07-23T03:09:57.526Z,17.25
2018-07-23T03:12:24.853Z,17.22
2018-07-23T03:14:52.134Z,17.18
2018-07-23T03:17:19.438Z,17.19
2018-07-23T03:19:48.532Z,17.20
2018-07-23T03:22:16.789Z,17.19
2018-07-23T03:24:45.382Z,17.19
2018-07-23T03:27:13.492Z,17.17
2018-07-23T03:29:41.157Z,17.11
2018-07-23T03:32:09.263Z,17.06
2018-07-23T03:34:36.610Z,17.01
2018-07-23T03:37:04.067Z,17.01
2018-07-23T03:39:31.398Z,16.96
2018-07-23T03:41:58.791Z,16.93
2018-07-23T03:44:26.141Z,16.86
2018-07-23T03:46:53.527Z,16.81
2018-07-23T03:49:20.922Z,16.76
2018-07-23T03:51:48.327Z,16.69
2018-07-23T03:54:16.717Z,16.63
2018-07-23T03:56:44.048Z,16.66
2018-07-23T03:59:11.378Z,16.67
2018-07-23T04:01:38.669Z,16.73
2018-07-23T04:04:06.381Z,16.75
2018-07-23T04:06:33.711Z,16.85
2018-07-23T04:09:01.012Z,16.85
2018-07-23T04:11:28.420Z,16.89
2018-07-23T04:13:55.742Z,16.90
2018-07-23T04:16:24.022Z,16.91
2018-07-23T04:18:52.038Z,16.92
2018-07-23T04:21:19.350Z,16.91
2018-07-23T04:23:46.736Z,16.90
2018-07-23T04:26:14.060Z,16.92
2018-07-23T04:28:41.413Z,16.92
2018-07-23T04:31:08.746Z,17.02
2018-07-23T04:33:36.396Z,17.08
2018-07-23T04:36:04.117Z,17.15
2018-07-23T04:38:31.600Z,17.25
2018-07-23T04:40:58.912Z,17.38
2018-07-23T04:43:28.327Z,17.51
2018-07-23T04:45:56.089Z,17.62
2018-07-23T04:48:24.073Z,17.75
2018-07-23T04:50:51.487Z,17.86
2018-07-23T04:53:18.856Z,17.95
2018-07-23T04:55:46.150Z,18.01
2018-07-23T04:58:13.499Z,18.12
2018-07-23T05:00:40.862Z,18.27
2018-07-23T05:03:08.281Z,18.42
2018-07-23T05:05:35.697Z,18.62
2018-07-23T05:08:03.059Z,18.82
2018-07-23T05:10:30.433Z,19.02
2018-07-23T05:12:57.773Z,19.24
2018-07-23T05:15:25.202Z,19.47
2018-07-23T05:17:52.554Z,19.61
2018-07-23T05:20:20.590Z,19.59
2018-07-23T05:22:48.158Z,19.64
2018-07-23T05:25:15.639Z,19.68
2018-07-23T05:27:43.021Z,19.87
2018-07-23T05:30:10.414Z,20.05
2018-07-23T05:32:37.749Z,20.29
2018-07-23T05:35:05.482Z,20.51
2018-07-23T05:37:32.918Z,20.67
2018-07-23T05:40:00.299Z,20.87
2018-07-23T05:42:28.300Z,20.95
2018-07-23T05:45:07.671Z,21.06
2018-07-23T05:47:34.984Z,21.21
2018-07-23T05:50:02.352Z,21.26
2018-07-23T05:52:29.690Z,21.27
2018-07-23T05:54:57.044Z,21.34
2018-07-23T05:57:24.890Z,21.38
2018-07-23T05:59:52.295Z,21.68
2018-07-23T06:02:19.648Z,22.00
2018-07-23T06:04:47.054Z,22.34
2018-07-23T06:07:14.389Z,22.49
2018-07-23T06:09:42.649Z,22.71
2018-07-23T06:12:10.658Z,22.88
2018-07-23T06:14:37.949Z,23.15
2018-07-23T06:17:05.584Z,23.30
2018-07-23T06:19:32.968Z,23.53
2018-07-23T06:22:00.263Z,23.54
2018-07-23T06:24:27.606Z,23.83
2018-07-23T06:26:54.905Z,24.24
2018-07-23T06:29:22.297Z,24.64
2018-07-23T06:31:49.616Z,24.78
2018-07-23T06:34:17.006Z,24.66
2018-07-23T06:36:44.747Z,24.48
2018-07-23T06:39:12.123Z,24.28
2018-07-23T06:41:40.216Z,24.37
2018-07-23T06:44:15.879Z,24.72
2018-07-23T06:46:43.280Z,25.01
2018-07-23T06:49:10.639Z,25.19
2018-07-23T06:51:38.351Z,25.24
2018-07-23T06:54:05.876Z,25.07
2018-07-23T06:56:33.987Z,25.37
2018-07-23T06:59:01.301Z,25.80
2018-07-23T07:01:28.603Z,26.18
2018-07-23T07:03:55.941Z,26.32
2018-07-23T07:06:23.994Z,26.30
2018-07-23T07:08:51.297Z,26.38
2018-07-23T07:11:19.086Z,26.45
2018-07-23T07:13:47.089Z,26.67
2018-07-23T07:16:14.451Z,26.65
2018-07-23T07:18:41.779Z,26.70
2018-07-23T07:21:22.319Z,27.01
2018-07-23T07:24:01.656Z,26.90
2018-07-23T07:26:42.744Z,27.17
2018-07-23T07:29:24.317Z,27.50
2018-07-23T07:32:04.873Z,27.67
2018-07-23T07:34:43.260Z,27.88
2018-07-23T07:37:10.756Z,27.92
2018-07-23T07:39:38.090Z,27.88
2018-07-23T07:42:05.530Z,27.77
2018-07-23T07:44:32.831Z,27.47
2018-07-23T07:47:00.242Z,27.76
2018-07-23T07:49:28.330Z,27.71
2018-07-23T07:51:55.753Z,28.15
2018-07-23T07:54:23.886Z,28.74
2018-07-23T07:56:51.353Z,28.99
2018-07-23T07:59:18.728Z,29.06
2018-07-23T08:01:46.133Z,28.97
2018-07-23T08:04:13.833Z,28.60
2018-07-23T08:06:41.141Z,28.05
2018-07-23T08:09:09.023Z,28.25
2018-07-23T08:11:36.670Z,28.83
2018-07-23T08:14:03.985Z,29.26
2018-07-23T08:16:31.497Z,29.49
2018-07-23T08:18:59.007Z,29.53
2018-07-23T08:21:26.355Z,29.35
2018-07-23T08:23:53.698Z,29.35
2018-07-23T08:26:23.304Z,29.09
2018-07-23T08:28:50.637Z,29.47
2018-07-23T08:31:19.262Z,29.76
2018-07-23T08:33:46.789Z,29.88
2018-07-23T08:36:14.143Z,29.78
2018-07-23T08:38:41.522Z,29.99
2018-07-23T08:41:08.960Z,29.67
2018-07-23T08:43:36.294Z,29.83
2018-07-23T08:46:04.709Z,29.84
2018-07-23T08:48:32.139Z,29.70
2018-07-23T08:51:01.049Z,30.04
2018-07-23T08:53:34.245Z,30.62
2018-07-23T08:56:01.960Z,31.03
2018-07-23T08:58:30.162Z,31.41
2018-07-23T09:00:58.072Z,31.28
2018-07-23T09:03:27.167Z,31.49
2018-07-23T09:05:55.288Z,31.44
2018-07-23T09:08:42.243Z,31.64
2018-07-23T09:11:11.230Z,31.85
2018-07-23T09:13:39.376Z,31.84
2018-07-23T09:16:07.995Z,31.74
2018-07-23T09:18:37.132Z,31.82
2018-07-23T09:21:06.013Z,32.13
2018-07-23T09:23:37.755Z,31.90
2018-07-23T09:26:06.495Z,32.05
2018-07-23T09:28:35.235Z,31.50
2018-07-23T09:31:03.604Z,31.54
2018-07-23T09:33:31.989Z,31.94
2018-07-23T09:36:00.476Z,32.06
2018-07-23T09:38:31.187Z,31.79
2018-07-23T09:40:58.883Z,31.84
2018-07-23T09:43:29.105Z,32.31
2018-07-23T09:45:57.062Z,33.03
2018-07-23T09:48:26.241Z,32.93
2018-07-23T09:50:58.033Z,32.50
2018-07-23T09:53:27.607Z,32.61
2018-07-23T09:55:56.143Z,32.89
2018-07-23T09:58:25.230Z,32.85
2018-07-23T10:01:02.635Z,32.75
2018-07-23T10:03:32.227Z,33.16
2018-07-23T10:06:01.710Z,33.81
2018-07-23T10:08:29.757Z,33.59
2018-07-23T10:10:58.330Z,33.24
2018-07-23T10:13:27.641Z,32.75
2018-07-23T10:15:57.204Z,33.21
2018-07-23T10:18:25.440Z,32.55
2018-07-23T10:20:53.161Z,31.40
2018-07-23T10:23:23.211Z,31.55
2018-07-23T10:25:54.383Z,31.46
2018-07-23T10:28:25.471Z,31.17
2018-07-23T10:30:56.764Z,31.66
2018-07-23T10:33:25.058Z,32.34
2018-07-23T10:35:54.210Z,32.29
2018-07-23T10:38:21.969Z,33.10
2018-07-23T10:41:00.636Z,32.89
2018-07-23T10:43:29.150Z,32.36
2018-07-23T10:46:08.446Z,31.65
2018-07-23T10:48:49.433Z,30.84
2018-07-23T10:51:29.821Z,30.51
2018-07-23T10:54:10.320Z,31.46
2018-07-23T10:56:50.799Z,32.00
2018-07-23T10:59:32.686Z,32.24
2018-07-23T11:02:13.809Z,30.83
2018-07-23T11:04:41.165Z,31.88
2018-07-23T11:07:08.551Z,32.64
2018-07-23T11:09:36.891Z,32.81
2018-07-23T11:12:04.279Z,32.42
2018-07-23T11:14:31.745Z,31.84
2018-07-23T11:16:59.182Z,32.73
2018-07-23T11:19:26.625Z,33.30
2018-07-23T11:21:54.006Z,33.40
2018-07-23T11:24:28.068Z,33.15
2018-07-23T11:26:55.590Z,34.03
2018-07-23T11:29:22.965Z,33.84
2018-07-23T11:31:50.403Z,32.82
2018-07-23T11:34:17.771Z,31.99
2018-07-23T11:36:45.146Z,31.49
2018-07-23T11:39:12.552Z,31.23
2018-07-23T11:41:44.207Z,31.93
2018-07-23T11:44:13.645Z,31.37
2018-07-23T11:46:41.145Z,30.76
2018-07-23T11:49:08.459Z,30.52
2018-07-23T12:06:01.357Z,32.48
2018-07-23T12:08:28.722Z,32.76
2018-07-23T12:10:57.880Z,33.15
2018-07-23T12:13:26.038Z,33.06
2018-07-23T12:15:53.436Z,33.39
2018-07-23T12:18:21.434Z,33.71
2018-07-23T12:20:49.755Z,34.03
2018-07-23T12:23:17.139Z,33.81
2018-07-23T12:25:44.552Z,34.16
2018-07-23T12:28:11.982Z,33.88
2018-07-23T12:30:39.583Z,33.74
2018-07-23T12:33:08.849Z,33.67
2018-07-23T12:35:37.564Z,34.04
2018-07-23T12:38:05.026Z,34.04
2018-07-23T12:40:33.119Z,34.18
2018-07-23T12:43:00.599Z,33.85
2018-07-23T12:45:28.387Z,33.09
2018-07-23T12:47:55.731Z,32.67
2018-07-23T12:50:23.191Z,32.17
2018-07-23T12:52:50.547Z,31.44
2018-07-23T12:55:17.889Z,30.57
2018-07-23T12:57:45.447Z,30.94
2018-07-23T13:00:12.860Z,31.90
2018-07-23T13:02:40.183Z,31.99
2018-07-23T13:05:07.570Z,32.52
2018-07-23T13:07:35.266Z,32.37
2018-07-23T13:10:02.765Z,32.00
2018-07-23T13:12:30.269Z,32.57
2018-07-23T13:14:58.157Z,32.95
2018-07-23T13:17:25.439Z,32.19
2018-07-23T13:19:52.846Z,31.85
2018-07-23T13:22:20.198Z,31.97
2018-07-23T13:24:47.690Z,32.64
2018-07-23T13:27:15.007Z,32.67
2018-07-23T13:29:42.514Z,32.70
2018-07-23T13:32:10.098Z,32.44
2018-07-23T13:34:37.500Z,32.11
2018-07-23T13:37:05.019Z,31.69
2018-07-23T13:39:32.441Z,31.73
2018-07-23T13:41:59.753Z,32.23
2018-07-23T13:44:27.094Z,32.19
2018-07-23T13:46:54.716Z,32.55
2018-07-23T13:49:22.526Z,33.23
2018-07-23T13:51:50.052Z,33.47
2018-07-23T13:54:17.518Z,32.71
2018-07-23T13:56:44.915Z,31.92
2018-07-23T13:59:12.343Z,31.44
2018-07-23T14:01:40.313Z,31.11
2018-07-23T14:04:08.615Z,30.66
2018-07-23T14:06:36.019Z,30.31
2018-07-23T14:09:05.614Z,30.38
2018-07-23T14:11:32.998Z,30.17
2018-07-23T14:14:00.452Z,29.98
2018-07-23T14:16:27.863Z,30.06
2018-07-23T14:18:55.318Z,29.90
2018-07-23T14:21:23.423Z,30.16
2018-07-23T14:23:51.676Z,30.35
2018-07-23T14:26:19.109Z,30.40
2018-07-23T14:28:46.469Z,30.25
2018-07-23T14:31:14.081Z,30.20
2018-07-23T14:33:45.258Z,30.30
2018-07-23T14:36:14.271Z,30.53
2018-07-23T14:38:42.196Z,30.68
2018-07-23T14:41:10.556Z,31.14
2018-07-23T14:43:38.290Z,31.43
2018-07-23T14:46:05.954Z,31.34
2018-07-23T14:48:33.400Z,31.34
2018-07-23T14:51:00.849Z,31.22
2018-07-23T14:53:29.430Z,31.13
2018-07-23T14:55:57.273Z,31.29
2018-07-23T14:58:25.304Z,30.96
2018-07-23T15:00:53.487Z,30.89
2018-07-23T15:03:20.871Z,30.89
2018-07-23T15:05:48.334Z,30.69
2018-07-23T15:08:15.970Z,30.52
2018-07-23T15:10:44.881Z,30.34
2018-07-23T15:13:12.255Z,30.24
2018-07-23T15:15:40.178Z,30.33
2018-07-23T15:18:07.887Z,30.53
2018-07-23T15:20:35.246Z,30.76
2018-07-23T15:23:02.837Z,30.76
2018-07-23T15:25:36.682Z,30.80
2018-07-23T15:28:04.352Z,30.36
2018-07-23T15:30:33.684Z,30.21
2018-07-23T15:33:03.096Z,30.16
2018-07-23T15:35:30.566Z,30.05
2018-07-23T15:37:57.987Z,29.97
2018-07-23T15:40:25.955Z,29.94
2018-07-23T15:42:53.405Z,30.05
2018-07-23T15:45:20.875Z,30.02
2018-07-23T15:47:48.776Z,29.88
2018-07-23T15:50:16.782Z,30.04
2018-07-23T15:52:45.431Z,30.19
2018-07-23T15:55:12.940Z,30.23
2018-07-23T15:57:40.176Z,30.13
2018-07-23T16:00:07.644Z,30.12
2018-07-23T16:02:35.324Z,30.04
2018-07-23T16:05:03.562Z,29.97
2018-07-23T16:07:31.382Z,29.98
2018-07-23T16:09:59.337Z,30.04
2018-07-23T16:12:26.705Z,30.17
2018-07-23T16:14:54.704Z,29.91
2018-07-23T16:17:22.084Z,29.95
2018-07-23T16:19:49.438Z,29.93
2018-07-23T16:22:16.810Z,29.92
2018-07-23T16:24:44.178Z,29.84
2018-07-23T16:27:12.564Z,29.52
2018-07-23T16:29:39.903Z,29.39
2018-07-23T16:32:07.332Z,29.26
2018-07-23T16:34:34.730Z,29.33
2018-07-23T16:37:02.074Z,29.29
2018-07-23T16:39:29.424Z,29.25
2018-07-23T16:41:56.790Z,29.16
2018-07-23T16:44:24.306Z,29.11
2018-07-23T16:46:51.767Z,29.00
2018-07-23T16:49:19.087Z,28.82
2018-07-23T16:51:47.214Z,28.71
2018-07-23T16:54:15.063Z,28.80
2018-07-23T16:56:42.435Z,28.72
2018-07-23T16:59:09.745Z,28.74
2018-07-23T17:01:37.204Z,28.67
2018-07-23T17:04:05.369Z,28.79
2018-07-23T17:06:32.825Z,28.54
2018-07-23T17:09:00.164Z,28.63
2018-07-23T17:11:27.580Z,28.61
2018-07-23T17:13:54.900Z,28.59
2018-07-23T17:16:22.670Z,28.47
2018-07-23T17:19:02.853Z,28.42
2018-07-23T17:21:30.319Z,28.43
2018-07-23T17:23:57.881Z,28.32
2018-07-23T17:26:26.066Z,28.35
2018-07-23T17:28:55.082Z,28.31
2018-07-23T17:31:28.906Z,28.26
2018-07-23T17:33:56.621Z,28.20
2018-07-23T17:36:35.195Z,28.13
2018-07-23T17:39:13.542Z,28.11
2018-07-23T17:41:45.127Z,28.09
2018-07-23T17:44:18.000Z,28.02
2018-07-23T17:46:46.486Z,27.95
2018-07-23T17:49:19.636Z,27.88
2018-07-23T17:52:01.967Z,27.87
2018-07-23T17:54:33.901Z,27.77
2018-07-23T17:57:02.607Z,27.65
2018-07-23T17:59:33.830Z,27.56
2018-07-23T18:02:10.927Z,27.52
2018-07-23T18:04:40.617Z,27.41
2018-07-23T18:07:16.532Z,27.35
2018-07-23T18:09:52.659Z,27.25
2018-07-23T18:12:25.596Z,27.11
2018-07-23T18:14:59.270Z,27.06
2018-07-23T18:17:27.349Z,26.98
2018-07-23T18:19:57.868Z,26.90
2018-07-23T18:22:27.246Z,26.87
2018-07-23T18:24:55.522Z,26.81
2018-07-23T18:27:26.438Z,26.74
2018-07-23T18:30:02.852Z,26.65
2018-07-23T18:32:31.777Z,26.58
2018-07-23T18:35:00.700Z,26.51
2018-07-23T18:37:31.758Z,26.41
2018-07-23T18:40:05.756Z,26.34
2018-07-23T18:42:38.066Z,26.26
2018-07-23T18:45:07.719Z,26.18
2018-07-23T18:47:39.880Z,26.11
2018-07-23T18:50:13.556Z,25.96
2018-07-23T18:52:43.146Z,25.88
2018-07-23T18:55:12.725Z,25.84
2018-07-23T18:57:41.778Z,25.75
2018-07-23T19:00:10.212Z,25.62
2018-07-23T19:02:39.501Z,25.50
2018-07-23T19:05:09.720Z,25.40
2018-07-23T19:07:39.143Z,25.29
2018-07-23T19:10:10.695Z,25.20
2018-07-23T19:12:39.182Z,25.13
2018-07-23T19:15:13.865Z,25.03
2018-07-23T19:17:43.479Z,24.93
2018-07-23T19:20:11.018Z,24.76
2018-07-23T19:22:38.427Z,24.59
2018-07-23T19:26:04.361Z,24.27
2018-07-23T19:28:31.845Z,24.01
2018-07-23T19:31:00.355Z,23.75
2018-07-23T19:33:27.895Z,23.51
2018-07-23T19:35:55.352Z,23.34
2018-07-23T19:38:22.732Z,23.12
2018-07-23T19:40:50.223Z,23.04
2018-07-23T19:43:17.578Z,23.03
2018-07-23T19:45:44.985Z,22.91
2018-07-23T19:51:05.607Z,22.61
2018-07-23T19:53:34.503Z,22.46
2018-07-23T19:56:02.156Z,22.32
2018-07-23T19:58:30.039Z,22.13
2018-07-23T20:00:57.522Z,22.01
2018-07-23T20:03:28.182Z,21.99
2018-07-23T20:06:15.854Z,21.94
2018-07-23T20:08:43.306Z,21.96
2018-07-23T20:11:10.565Z,21.91
2018-07-23T20:13:37.867Z,21.75
2018-07-23T20:16:05.283Z,21.72
2018-07-23T20:18:32.587Z,21.63
2018-07-23T20:21:04.399Z,21.55
2018-07-23T20:23:31.720Z,21.35
2018-07-23T20:25:59.075Z,21.18
2018-07-23T20:28:26.423Z,21.08
2018-07-23T20:30:53.675Z,21.10
2018-07-23T20:33:20.950Z,21.08
2018-07-23T20:35:48.254Z,21.05
2018-07-23T20:38:15.616Z,21.03
2018-07-23T20:40:42.859Z,21.02
2018-07-23T20:43:10.182Z,20.92
2018-07-23T20:45:37.464Z,20.80
2018-07-23T20:48:04.813Z,20.73
2018-07-23T20:50:32.089Z,20.64
2018-07-23T20:52:59.358Z,20.46
2018-07-23T20:55:26.702Z,20.35
2018-07-23T20:57:54.038Z,20.32
2018-07-23T21:00:21.496Z,20.29
2018-07-23T21:02:48.852Z,20.28
2018-07-23T21:05:16.318Z,20.15
2018-07-23T21:07:43.593Z,20.14
2018-07-23T21:10:10.978Z,20.09
2018-07-23T21:12:39.665Z,20.18
2018-07-23T21:15:07.712Z,20.26
2018-07-23T21:17:34.980Z,20.32
2018-07-23T21:20:02.374Z,20.34
2018-07-23T21:22:29.646Z,20.29
2018-07-23T21:24:56.963Z,20.18
2018-07-23T21:27:24.283Z,20.11
2018-07-23T21:29:51.895Z,20.00
2018-07-23T21:32:19.846Z,19.88
2018-07-23T21:34:47.448Z,19.90
2018-07-23T21:37:14.725Z,19.84
2018-07-23T21:39:43.378Z,19.77
2018-07-23T21:42:10.672Z,19.77
2018-07-23T21:44:37.987Z,19.72
2018-07-23T21:47:05.338Z,19.69
2018-07-23T21:49:32.635Z,19.70
2018-07-23T21:52:00.055Z,19.73
2018-07-23T21:54:27.728Z,19.80
2018-07-23T21:56:55.016Z,19.82
2018-07-23T21:59:22.329Z,19.82
2018-07-23T22:01:49.687Z,19.82
2018-07-23T22:04:16.975Z,19.76
2018-07-23T22:06:44.270Z,19.70
2018-07-23T22:09:11.568Z,19.68
2018-07-23T22:11:38.898Z,19.63
2018-07-23T22:14:07.483Z,19.56
2018-07-23T22:16:34.728Z,19.49
2018-07-23T22:19:02.028Z,19.40
2018-07-23T22:21:29.319Z,19.38
2018-07-23T22:23:56.583Z,19.38
2018-07-23T22:26:23.898Z,19.43
2018-07-23T22:28:51.157Z,19.42
2018-07-23T22:31:18.408Z,19.33
2018-07-23T22:33:45.640Z,19.14
2018-07-23T22:36:12.907Z,19.01
2018-07-23T22:38:40.179Z,18.95
2018-07-23T22:41:07.466Z,18.93
2018-07-23T22:43:34.754Z,18.83
2018-07-23T22:46:02.022Z,18.85
2018-07-23T22:48:29.949Z,18.92
2018-07-23T22:50:57.245Z,18.92
2018-07-23T22:53:24.494Z,18.87
2018-07-23T22:55:51.766Z,18.88
2018-07-23T22:58:18.985Z,18.90
2018-07-23T23:00:46.312Z,18.89
2018-07-23T23:03:14.094Z,18.86
2018-07-23T23:05:41.421Z,18.79
2018-07-23T23:08:08.667Z,18.79
2018-07-23T23:10:35.942Z,18.80
2018-07-23T23:13:03.220Z,18.78
2018-07-23T23:15:30.470Z,18.83
2018-07-23T23:17:57.785Z,18.85
2018-07-23T23:20:25.671Z,18.85
2018-07-23T23:22:52.989Z,18.84
2018-07-23T23:25:21.935Z,18.84
2018-07-23T23:27:49.187Z,18.75
2018-07-23T23:30:16.688Z,18.70
2018-07-23T23:32:44.569Z,18.68
2018-07-23T23:35:11.984Z,18.64
2018-07-23T23:37:39.146Z,18.60
2018-07-23T23:40:06.429Z,18.48
2018-07-23T23:42:33.710Z,18.41
2018-07-23T23:45:00.979Z,18.37
2018-07-23T23:47:28.231Z,18.38
2018-07-23T23:49:55.465Z,18.32
2018-07-23T23:52:22.776Z,18.25
2018-07-23T23:54:50.022Z,18.23
2018-07-23T23:57:17.289Z,18.20
2018-07-23T23:59:44.554Z,18.41
